sensor_id;sensor_type;location;lat;lon;timestamp;P1;durP1;ratioP1;P2;durP2;ratioP2
28605;SDS011;46498;49.968;7.754;2022-12-29T00:02:27;5.72;;;3.03;;
28605;SDS011;46498;49.968;7.754;2022-12-29T00:07:28;8.23;;;3.30;;
28605;SDS011;46498;49.968;7.754;2022-12-29T00:12:29;8.45;;;3.33;;
28605;SDS011;46498;49.968;7.754;2022-12-29T00:20:37;8.13;;;2.30;;
28605;SDS011;46498;49.968;7.754;2022-12-29T00:25:57;11.32;;;3.40;;
28605;SDS011;46498;49.968;7.754;2022-12-29T00:31:16;6.05;;;3.15;;
28605;SDS011;46498;49.968;7.754;2022-12-29T00:36:38;4.95;;;2.62;;
28605;SDS011;46498;49.968;7.754;2022-12-29T00:41:41;10.07;;;2.97;;
28605;SDS011;46498;49.968;7.754;2022-12-29T00:47:00;5.72;;;2.60;;
28605;SDS011;46498;49.968;7.754;2022-12-29T00:52:06;7.00;;;2.65;;
28605;SDS011;46498;49.968;7.754;2022-12-29T01:02:10;3.95;;;2.47;;
28605;SDS011;46498;49.968;7.754;2022-12-29T01:07:11;8.10;;;3.87;;
28605;SDS011;46498;49.968;7.754;2022-12-29T01:12:12;9.43;;;4.43;;
28605;SDS011;46498;49.968;7.754;2022-12-29T01:17:14;7.75;;;2.55;;
28605;SDS011;46498;49.968;7.754;2022-12-29T01:22:15;6.35;;;2.85;;
28605;SDS011;46498;49.968;7.754;2022-12-29T01:27:18;5.83;;;2.70;;
28605;SDS011;46498;49.968;7.754;2022-12-29T01:32:19;4.47;;;2.75;;
28605;SDS011;46498;49.968;7.754;2022-12-29T01:37:19;3.72;;;2.30;;
28605;SDS011;46498;49.968;7.754;2022-12-29T01:42:22;5.15;;;2.60;;
28605;SDS011;46498;49.968;7.754;2022-12-29T01:47:27;5.07;;;1.95;;
28605;SDS011;46498;49.968;7.754;2022-12-29T01:53:14;4.35;;;3.03;;
28605;SDS011;46498;49.968;7.754;2022-12-29T01:58:20;6.40;;;2.42;;
28605;SDS011;46498;49.968;7.754;2022-12-29T02:03:25;6.40;;;2.60;;
28605;SDS011;46498;49.968;7.754;2022-12-29T02:08:28;5.10;;;2.22;;
28605;SDS011;46498;49.968;7.754;2022-12-29T02:13:30;4.90;;;2.60;;
28605;SDS011;46498;49.968;7.754;2022-12-29T02:30:42;8.32;;;2.40;;
28605;SDS011;46498;49.968;7.754;2022-12-29T02:42:13;6.18;;;2.80;;
28605;SDS011;46498;49.968;7.754;2022-12-29T02:49:33;5.57;;;3.10;;
28605;SDS011;46498;49.968;7.754;2022-12-29T02:54:47;7.72;;;3.10;;
28605;SDS011;46498;49.968;7.754;2022-12-29T02:59:51;5.68;;;1.98;;
28605;SDS011;46498;49.968;7.754;2022-12-29T03:10:41;7.55;;;1.70;;
28605;SDS011;46498;49.968;7.754;2022-12-29T03:17:09;5.35;;;2.05;;
28605;SDS011;46498;49.968;7.754;2022-12-29T03:22:25;3.42;;;1.70;;
28605;SDS011;46498;49.968;7.754;2022-12-29T03:27:44;3.30;;;1.58;;
28605;SDS011;46498;49.968;7.754;2022-12-29T03:32:51;3.67;;;1.65;;
28605;SDS011;46498;49.968;7.754;2022-12-29T03:38:05;3.03;;;1.73;;
28605;SDS011;46498;49.968;7.754;2022-12-29T03:43:12;8.07;;;2.12;;
28605;SDS011;46498;49.968;7.754;2022-12-29T03:48:15;4.70;;;1.70;;
28605;SDS011;46498;49.968;7.754;2022-12-29T03:53:17;5.77;;;2.03;;
28605;SDS011;46498;49.968;7.754;2022-12-29T03:58:19;8.60;;;2.03;;
28605;SDS011;46498;49.968;7.754;2022-12-29T04:03:30;8.57;;;1.80;;
28605;SDS011;46498;49.968;7.754;2022-12-29T04:08:31;6.43;;;2.28;;
28605;SDS011;46498;49.968;7.754;2022-12-29T04:13:32;3.10;;;1.60;;
28605;SDS011;46498;49.968;7.754;2022-12-29T04:18:33;4.72;;;1.92;;
28605;SDS011;46498;49.968;7.754;2022-12-29T04:23:35;3.40;;;1.85;;
28605;SDS011;46498;49.968;7.754;2022-12-29T04:28:40;6.97;;;2.10;;
28605;SDS011;46498;49.968;7.754;2022-12-29T04:33:49;5.32;;;1.70;;
28605;SDS011;46498;49.968;7.754;2022-12-29T04:38:50;5.50;;;1.90;;
28605;SDS011;46498;49.968;7.754;2022-12-29T04:43:51;3.67;;;2.20;;
28605;SDS011;46498;49.968;7.754;2022-12-29T04:49:28;7.75;;;2.08;;
28605;SDS011;46498;49.968;7.754;2022-12-29T04:55:03;5.40;;;1.90;;
28605;SDS011;46498;49.968;7.754;2022-12-29T05:00:05;4.43;;;1.67;;
28605;SDS011;46498;49.968;7.754;2022-12-29T05:05:09;5.78;;;2.05;;
28605;SDS011;46498;49.968;7.754;2022-12-29T05:10:15;3.92;;;1.85;;
28605;SDS011;46498;49.968;7.754;2022-12-29T05:15:17;6.70;;;2.12;;
28605;SDS011;46498;49.968;7.754;2022-12-29T05:20:19;5.53;;;2.17;;
28605;SDS011;46498;49.968;7.754;2022-12-29T05:25:20;5.62;;;2.00;;
28605;SDS011;46498;49.968;7.754;2022-12-29T05:30:41;7.18;;;2.08;;
28605;SDS011;46498;49.968;7.754;2022-12-29T05:35:43;6.47;;;2.20;;
28605;SDS011;46498;49.968;7.754;2022-12-29T05:40:44;4.90;;;2.20;;
28605;SDS011;46498;49.968;7.754;2022-12-29T05:45:56;6.73;;;2.30;;
28605;SDS011;46498;49.968;7.754;2022-12-29T05:51:18;4.55;;;2.10;;
28605;SDS011;46498;49.968;7.754;2022-12-29T05:56:24;6.28;;;2.00;;
28605;SDS011;46498;49.968;7.754;2022-12-29T06:01:30;7.87;;;2.12;;
28605;SDS011;46498;49.968;7.754;2022-12-29T06:06:31;4.80;;;1.90;;
28605;SDS011;46498;49.968;7.754;2022-12-29T06:11:32;4.50;;;1.48;;
28605;SDS011;46498;49.968;7.754;2022-12-29T06:16:33;4.68;;;1.70;;
28605;SDS011;46498;49.968;7.754;2022-12-29T06:21:38;5.90;;;1.85;;
28605;SDS011;46498;49.968;7.754;2022-12-29T06:26:40;4.18;;;1.80;;
28605;SDS011;46498;49.968;7.754;2022-12-29T06:31:41;5.03;;;1.50;;
28605;SDS011;46498;49.968;7.754;2022-12-29T06:36:42;4.87;;;1.75;;
28605;SDS011;46498;49.968;7.754;2022-12-29T06:41:43;4.00;;;1.83;;
28605;SDS011;46498;49.968;7.754;2022-12-29T06:47:09;3.10;;;1.80;;
28605;SDS011;46498;49.968;7.754;2022-12-29T06:52:10;9.95;;;2.90;;
28605;SDS011;46498;49.968;7.754;2022-12-29T06:57:13;4.00;;;2.30;;
28605;SDS011;46498;49.968;7.754;2022-12-29T07:02:14;4.35;;;2.25;;
28605;SDS011;46498;49.968;7.754;2022-12-29T07:07:18;8.90;;;2.85;;
28605;SDS011;46498;49.968;7.754;2022-12-29T07:12:19;4.67;;;2.27;;
28605;SDS011;46498;49.968;7.754;2022-12-29T07:17:20;4.75;;;2.00;;
28605;SDS011;46498;49.968;7.754;2022-12-29T07:22:21;3.50;;;2.12;;
28605;SDS011;46498;49.968;7.754;2022-12-29T07:27:22;7.32;;;2.47;;
28605;SDS011;46498;49.968;7.754;2022-12-29T07:32:23;5.87;;;2.20;;
28605;SDS011;46498;49.968;7.754;2022-12-29T07:37:24;6.80;;;2.10;;
28605;SDS011;46498;49.968;7.754;2022-12-29T07:42:25;3.47;;;1.87;;
28605;SDS011;46498;49.968;7.754;2022-12-29T07:47:26;6.00;;;2.60;;
28605;SDS011;46498;49.968;7.754;2022-12-29T07:52:27;8.45;;;2.42;;
28605;SDS011;46498;49.968;7.754;2022-12-29T07:57:28;4.93;;;2.33;;
28605;SDS011;46498;49.968;7.754;2022-12-29T08:02:32;8.73;;;3.00;;
28605;SDS011;46498;49.968;7.754;2022-12-29T08:07:34;7.00;;;2.92;;
28605;SDS011;46498;49.968;7.754;2022-12-29T08:12:35;6.45;;;2.72;;
28605;SDS011;46498;49.968;7.754;2022-12-29T08:17:36;6.32;;;3.12;;
28605;SDS011;46498;49.968;7.754;2022-12-29T08:22:37;5.05;;;2.85;;
28605;SDS011;46498;49.968;7.754;2022-12-29T08:27:38;7.00;;;2.67;;
28605;SDS011;46498;49.968;7.754;2022-12-29T08:32:38;7.40;;;2.85;;
28605;SDS011;46498;49.968;7.754;2022-12-29T08:37:39;6.65;;;3.03;;
28605;SDS011;46498;49.968;7.754;2022-12-29T08:42:40;9.52;;;2.55;;
28605;SDS011;46498;49.968;7.754;2022-12-29T08:47:41;6.30;;;1.90;;
28605;SDS011;46498;49.968;7.754;2022-12-29T08:52:43;6.32;;;2.95;;
28605;SDS011;46498;49.968;7.754;2022-12-29T08:57:44;5.28;;;1.98;;
28605;SDS011;46498;49.968;7.754;2022-12-29T09:02:51;2.83;;;1.35;;
28605;SDS011;46498;49.968;7.754;2022-12-29T09:07:52;2.47;;;0.93;;
28605;SDS011;46498;49.968;7.754;2022-12-29T09:12:53;2.90;;;0.57;;
28605;SDS011;46498;49.968;7.754;2022-12-29T09:17:53;2.30;;;0.70;;
28605;SDS011;46498;49.968;7.754;2022-12-29T09:22:55;3.28;;;0.70;;
28605;SDS011;46498;49.968;7.754;2022-12-29T09:27:56;2.67;;;1.17;;
28605;SDS011;46498;49.968;7.754;2022-12-29T09:32:57;2.00;;;0.90;;
28605;SDS011;46498;49.968;7.754;2022-12-29T09:37:58;2.95;;;0.65;;
28605;SDS011;46498;49.968;7.754;2022-12-29T09:50:24;3.20;;;0.65;;
28605;SDS011;46498;49.968;7.754;2022-12-29T09:55:40;3.60;;;1.30;;
28605;SDS011;46498;49.968;7.754;2022-12-29T10:13:04;1.67;;;0.40;;
28605;SDS011;46498;49.968;7.754;2022-12-29T10:25:21;2.55;;;0.70;;
28605;SDS011;46498;49.968;7.754;2022-12-29T10:30:32;2.35;;;0.47;;
28605;SDS011;46498;49.968;7.754;2022-12-29T10:35:35;2.62;;;0.40;;
28605;SDS011;46498;49.968;7.754;2022-12-29T10:40:43;2.92;;;0.75;;
28605;SDS011;46498;49.968;7.754;2022-12-29T10:45:50;5.43;;;0.93;;
28605;SDS011;46498;49.968;7.754;2022-12-29T10:50:55;2.97;;;0.60;;
28605;SDS011;46498;49.968;7.754;2022-12-29T10:56:02;5.12;;;0.90;;
28605;SDS011;46498;49.968;7.754;2022-12-29T11:01:14;5.50;;;0.70;;
28605;SDS011;46498;49.968;7.754;2022-12-29T11:06:18;6.15;;;0.70;;
28605;SDS011;46498;49.968;7.754;2022-12-29T11:11:26;2.37;;;0.43;;
28605;SDS011;46498;49.968;7.754;2022-12-29T11:16:33;2.65;;;0.77;;
28605;SDS011;46498;49.968;7.754;2022-12-29T11:21:36;3.73;;;0.67;;
28605;SDS011;46498;49.968;7.754;2022-12-29T11:26:43;6.68;;;0.60;;
28605;SDS011;46498;49.968;7.754;2022-12-29T11:31:48;5.93;;;0.80;;
28605;SDS011;46498;49.968;7.754;2022-12-29T11:36:51;3.10;;;0.90;;
28605;SDS011;46498;49.968;7.754;2022-12-29T11:41:59;8.50;;;1.02;;
28605;SDS011;46498;49.968;7.754;2022-12-29T11:47:02;3.20;;;0.70;;
28605;SDS011;46498;49.968;7.754;2022-12-29T11:52:06;4.97;;;0.70;;
28605;SDS011;46498;49.968;7.754;2022-12-29T11:57:14;4.15;;;0.50;;
28605;SDS011;46498;49.968;7.754;2022-12-29T12:07:45;10.02;;;1.05;;
28605;SDS011;46498;49.968;7.754;2022-12-29T12:12:57;3.25;;;0.70;;
28605;SDS011;46498;49.968;7.754;2022-12-29T12:18:08;4.35;;;1.00;;
28605;SDS011;46498;49.968;7.754;2022-12-29T12:30:00;4.40;;;0.73;;
28605;SDS011;46498;49.968;7.754;2022-12-29T12:35:06;3.08;;;0.80;;
28605;SDS011;46498;49.968;7.754;2022-12-29T12:40:33;3.95;;;1.00;;
28605;SDS011;46498;49.968;7.754;2022-12-29T12:46:19;7.28;;;1.00;;
28605;SDS011;46498;49.968;7.754;2022-12-29T12:52:41;4.28;;;1.00;;
28605;SDS011;46498;49.968;7.754;2022-12-29T13:12:45;4.45;;;0.65;;
28605;SDS011;46498;49.968;7.754;2022-12-29T13:18:10;5.43;;;1.48;;
28605;SDS011;46498;49.968;7.754;2022-12-29T13:23:41;5.60;;;0.90;;
28605;SDS011;46498;49.968;7.754;2022-12-29T13:29:13;6.40;;;0.70;;
28605;SDS011;46498;49.968;7.754;2022-12-29T13:34:40;3.78;;;0.80;;
28605;SDS011;46498;49.968;7.754;2022-12-29T13:39:53;9.45;;;2.28;;
28605;SDS011;46498;49.968;7.754;2022-12-29T13:45:10;6.97;;;1.02;;
28605;SDS011;46498;49.968;7.754;2022-12-29T13:50:17;7.22;;;1.48;;
28605;SDS011;46498;49.968;7.754;2022-12-29T14:03:52;4.60;;;1.08;;
28605;SDS011;46498;49.968;7.754;2022-12-29T14:08:56;7.45;;;1.33;;
28605;SDS011;46498;49.968;7.754;2022-12-29T14:14:13;5.18;;;1.02;;
28605;SDS011;46498;49.968;7.754;2022-12-29T14:19:29;6.65;;;1.08;;
28605;SDS011;46498;49.968;7.754;2022-12-29T14:24:42;4.57;;;1.27;;
28605;SDS011;46498;49.968;7.754;2022-12-29T14:29:47;6.10;;;1.62;;
28605;SDS011;46498;49.968;7.754;2022-12-29T14:34:50;7.95;;;1.10;;
28605;SDS011;46498;49.968;7.754;2022-12-29T14:45:28;9.88;;;1.58;;
28605;SDS011;46498;49.968;7.754;2022-12-29T14:50:39;8.10;;;1.08;;
28605;SDS011;46498;49.968;7.754;2022-12-29T14:55:44;9.02;;;1.02;;
28605;SDS011;46498;49.968;7.754;2022-12-29T15:00:53;6.12;;;1.45;;
28605;SDS011;46498;49.968;7.754;2022-12-29T15:05:59;7.20;;;0.90;;
28605;SDS011;46498;49.968;7.754;2022-12-29T15:16:44;7.15;;;1.50;;
28605;SDS011;46498;49.968;7.754;2022-12-29T15:21:46;8.10;;;1.80;;
28605;SDS011;46498;49.968;7.754;2022-12-29T15:26:49;5.85;;;0.93;;
28605;SDS011;46498;49.968;7.754;2022-12-29T15:31:52;14.15;;;2.67;;
28605;SDS011;46498;49.968;7.754;2022-12-29T15:36:53;26.50;;;7.62;;
28605;SDS011;46498;49.968;7.754;2022-12-29T15:41:55;10.95;;;1.95;;
28605;SDS011;46498;49.968;7.754;2022-12-29T15:47:11;8.15;;;1.25;;
28605;SDS011;46498;49.968;7.754;2022-12-29T15:52:17;7.47;;;2.15;;
28605;SDS011;46498;49.968;7.754;2022-12-29T15:57:22;10.30;;;2.15;;
28605;SDS011;46498;49.968;7.754;2022-12-29T16:02:30;13.02;;;2.22;;
28605;SDS011;46498;49.968;7.754;2022-12-29T16:07:32;9.82;;;2.03;;
28605;SDS011;46498;49.968;7.754;2022-12-29T16:12:42;9.68;;;1.80;;
28605;SDS011;46498;49.968;7.754;2022-12-29T16:17:47;8.10;;;1.80;;
28605;SDS011;46498;49.968;7.754;2022-12-29T16:22:50;6.35;;;1.05;;
28605;SDS011;46498;49.968;7.754;2022-12-29T16:27:55;15.30;;;2.22;;
28605;SDS011;46498;49.968;7.754;2022-12-29T16:33:03;9.65;;;1.37;;
28605;SDS011;46498;49.968;7.754;2022-12-29T16:38:16;11.73;;;2.42;;
28605;SDS011;46498;49.968;7.754;2022-12-29T16:43:20;10.97;;;3.70;;
28605;SDS011;46498;49.968;7.754;2022-12-29T16:48:34;7.70;;;1.40;;
28605;SDS011;46498;49.968;7.754;2022-12-29T16:53:50;7.45;;;1.30;;
28605;SDS011;46498;49.968;7.754;2022-12-29T16:59:38;9.05;;;1.42;;
28605;SDS011;46498;49.968;7.754;2022-12-29T17:04:44;8.80;;;1.95;;
28605;SDS011;46498;49.968;7.754;2022-12-29T17:09:49;10.50;;;2.20;;
28605;SDS011;46498;49.968;7.754;2022-12-29T17:14:57;18.83;;;3.97;;
28605;SDS011;46498;49.968;7.754;2022-12-29T17:20:03;14.82;;;4.70;;
28605;SDS011;46498;49.968;7.754;2022-12-29T17:25:06;13.68;;;3.70;;
28605;SDS011;46498;49.968;7.754;2022-12-29T17:30:13;17.05;;;4.05;;
28605;SDS011;46498;49.968;7.754;2022-12-29T17:35:17;16.70;;;5.40;;
28605;SDS011;46498;49.968;7.754;2022-12-29T17:40:29;14.75;;;4.22;;
28605;SDS011;46498;49.968;7.754;2022-12-29T17:50:33;9.70;;;1.70;;
28605;SDS011;46498;49.968;7.754;2022-12-29T17:55:35;13.55;;;2.37;;
28605;SDS011;46498;49.968;7.754;2022-12-29T18:00:39;5.55;;;1.30;;
28605;SDS011;46498;49.968;7.754;2022-12-29T18:05:40;21.90;;;7.30;;
28605;SDS011;46498;49.968;7.754;2022-12-29T18:10:41;12.37;;;3.08;;
28605;SDS011;46498;49.968;7.754;2022-12-29T18:15:42;8.75;;;1.70;;
28605;SDS011;46498;49.968;7.754;2022-12-29T18:20:43;8.88;;;1.87;;
28605;SDS011;46498;49.968;7.754;2022-12-29T18:25:48;13.88;;;1.70;;
28605;SDS011;46498;49.968;7.754;2022-12-29T18:30:53;8.18;;;2.67;;
28605;SDS011;46498;49.968;7.754;2022-12-29T18:35:57;15.38;;;4.05;;
28605;SDS011;46498;49.968;7.754;2022-12-29T18:41:00;15.18;;;3.10;;
28605;SDS011;46498;49.968;7.754;2022-12-29T18:46:01;13.45;;;3.25;;
28605;SDS011;46498;49.968;7.754;2022-12-29T18:51:02;16.52;;;4.93;;
28605;SDS011;46498;49.968;7.754;2022-12-29T18:56:04;16.65;;;5.62;;
28605;SDS011;46498;49.968;7.754;2022-12-29T19:01:09;13.82;;;2.35;;
28605;SDS011;46498;49.968;7.754;2022-12-29T19:06:27;17.33;;;3.50;;
28605;SDS011;46498;49.968;7.754;2022-12-29T19:11:28;16.10;;;3.75;;
28605;SDS011;46498;49.968;7.754;2022-12-29T19:16:29;13.07;;;2.35;;
28605;SDS011;46498;49.968;7.754;2022-12-29T19:21:30;16.15;;;3.42;;
28605;SDS011;46498;49.968;7.754;2022-12-29T19:26:32;20.35;;;3.83;;
28605;SDS011;46498;49.968;7.754;2022-12-29T19:31:36;22.73;;;3.30;;
28605;SDS011;46498;49.968;7.754;2022-12-29T19:36:38;13.32;;;2.47;;
28605;SDS011;46498;49.968;7.754;2022-12-29T19:41:38;14.98;;;2.90;;
28605;SDS011;46498;49.968;7.754;2022-12-29T19:46:39;14.77;;;2.75;;
28605;SDS011;46498;49.968;7.754;2022-12-29T19:51:40;19.73;;;3.10;;
28605;SDS011;46498;49.968;7.754;2022-12-29T19:56:41;14.02;;;2.40;;
28605;SDS011;46498;49.968;7.754;2022-12-29T20:01:43;42.67;;;12.63;;
28605;SDS011;46498;49.968;7.754;2022-12-29T20:06:45;52.50;;;18.67;;
28605;SDS011;46498;49.968;7.754;2022-12-29T20:11:45;16.40;;;5.50;;
28605;SDS011;46498;49.968;7.754;2022-12-29T20:16:47;19.42;;;4.80;;
28605;SDS011;46498;49.968;7.754;2022-12-29T20:22:11;15.55;;;3.87;;
28605;SDS011;46498;49.968;7.754;2022-12-29T20:27:12;13.18;;;3.80;;
28605;SDS011;46498;49.968;7.754;2022-12-29T20:32:15;15.75;;;2.72;;
28605;SDS011;46498;49.968;7.754;2022-12-29T20:37:19;16.05;;;2.90;;
28605;SDS011;46498;49.968;7.754;2022-12-29T20:42:21;14.23;;;2.60;;
28605;SDS011;46498;49.968;7.754;2022-12-29T20:47:21;17.73;;;2.67;;
28605;SDS011;46498;49.968;7.754;2022-12-29T20:52:22;18.67;;;3.58;;
28605;SDS011;46498;49.968;7.754;2022-12-29T20:57:23;13.43;;;2.62;;
28605;SDS011;46498;49.968;7.754;2022-12-29T21:02:24;16.35;;;4.25;;
28605;SDS011;46498;49.968;7.754;2022-12-29T21:07:25;18.95;;;5.22;;
28605;SDS011;46498;49.968;7.754;2022-12-29T21:12:26;21.25;;;3.30;;
28605;SDS011;46498;49.968;7.754;2022-12-29T21:17:27;16.73;;;2.47;;
28605;SDS011;46498;49.968;7.754;2022-12-29T21:22:29;10.95;;;3.12;;
28605;SDS011;46498;49.968;7.754;2022-12-29T21:27:29;18.02;;;2.97;;
28605;SDS011;46498;49.968;7.754;2022-12-29T21:32:32;13.15;;;1.92;;
28605;SDS011;46498;49.968;7.754;2022-12-29T21:37:33;25.88;;;2.67;;
28605;SDS011;46498;49.968;7.754;2022-12-29T21:42:35;18.60;;;2.30;;
28605;SDS011;46498;49.968;7.754;2022-12-29T21:47:36;20.58;;;2.80;;
28605;SDS011;46498;49.968;7.754;2022-12-29T21:52:55;13.02;;;2.05;;
28605;SDS011;46498;49.968;7.754;2022-12-29T21:57:56;21.00;;;2.47;;
28605;SDS011;46498;49.968;7.754;2022-12-29T22:03:16;24.30;;;2.75;;
28605;SDS011;46498;49.968;7.754;2022-12-29T22:08:36;18.50;;;2.55;;
28605;SDS011;46498;49.968;7.754;2022-12-29T22:13:56;16.10;;;3.40;;
28605;SDS011;46498;49.968;7.754;2022-12-29T22:18:57;16.58;;;2.70;;
28605;SDS011;46498;49.968;7.754;2022-12-29T22:23:58;22.73;;;3.80;;
28605;SDS011;46498;49.968;7.754;2022-12-29T22:29:00;21.20;;;3.17;;
28605;SDS011;46498;49.968;7.754;2022-12-29T22:34:01;20.90;;;2.72;;
28605;SDS011;46498;49.968;7.754;2022-12-29T22:39:03;14.65;;;2.03;;
28605;SDS011;46498;49.968;7.754;2022-12-29T22:44:04;19.27;;;2.67;;
28605;SDS011;46498;49.968;7.754;2022-12-29T22:49:06;19.67;;;2.25;;
28605;SDS011;46498;49.968;7.754;2022-12-29T22:54:07;19.77;;;2.25;;
28605;SDS011;46498;49.968;7.754;2022-12-29T22:59:08;15.68;;;2.45;;
28605;SDS011;46498;49.968;7.754;2022-12-29T23:10:03;18.90;;;2.55;;
28605;SDS011;46498;49.968;7.754;2022-12-29T23:15:05;29.75;;;4.03;;
28605;SDS011;46498;49.968;7.754;2022-12-29T23:20:06;16.48;;;2.83;;
28605;SDS011;46498;49.968;7.754;2022-12-29T23:25:08;14.07;;;2.50;;
28605;SDS011;46498;49.968;7.754;2022-12-29T23:30:09;18.02;;;2.10;;
28605;SDS011;46498;49.968;7.754;2022-12-29T23:35:10;22.27;;;4.03;;
28605;SDS011;46498;49.968;7.754;2022-12-29T23:40:11;20.70;;;3.47;;
28605;SDS011;46498;49.968;7.754;2022-12-29T23:45:12;19.65;;;2.58;;
28605;SDS011;46498;49.968;7.754;2022-12-29T23:50:13;20.83;;;3.20;;
28605;SDS011;46498;49.968;7.754;2022-12-29T23:55:14;34.75;;;7.65;;
